Terminal Aerodrome Forecast
Issued by NWS

Home | Current Version | Previous Version | Text Only | Print | Product List | Glossary On
Versions: 1 2 3 4 5 6 7 8 9 10 11 12 13
000
FTUS44 KLIX 201100
TAFGPT
TAF
KGPT 201120Z 2012/2112 04004KT P6SM FEW250
     FM201900 15005KT P6SM FEW250
     FM210000 00000KT P6SM FEW250=

USA.gov is the U.S. government's official web portal to all federal, state and local government web resources and services.